Time;durP1;ratioP1;P1;durP2;ratioP2;P2;SDS_P1;SDS_P2;PMS_P1;PMS_P2;Temp;Humidity;BMP_temperature;BMP_pressure;BME280_temperature;BME280_humidity;BME280_pressure;Samples;Min_cycle;Max_cycle;Signal;HPM_P1;HPM_P2
2021/09/09 00:00:38;;;;;;;10.35;9.30;;;;;;;17.18;93.22;98353.88;4944270;28;102618;-60
2021/09/09 00:03:09;;;;;;;11.50;10.40;;;;;;;17.35;91.46;98362.78;4950709;28;102719;-60
2021/09/09 00:05:37;;;;;;;8.60;7.88;;;;;;;17.48;90.20;98362.34;4949259;28;103385;-63
2021/09/09 00:08:06;;;;;;;8.80;8.00;;;;;;;17.50;90.30;98357.69;4955646;28;103364;-60
2021/09/09 00:10:36;;;;;;;14.93;13.50;;;;;;;17.23;92.67;98364.94;4950710;28;102997;-60
2021/09/09 00:13:05;;;;;;;16.63;14.27;;;;;;;16.97;95.63;98360.63;4952192;28;102737;-61
2021/09/09 00:15:36;;;;;;;11.35;10.18;;;;;;;17.11;94.12;98355.53;4950598;28;103909;-67
2021/09/09 00:18:04;;;;;;;14.70;13.10;;;;;;;17.10;93.91;98353.84;4950682;28;103291;-66
2021/09/09 00:20:34;;;;;;;12.60;11.15;;;;;;;17.15;94.55;98362.22;4941029;28;103073;-67
2021/09/09 00:23:02;;;;;;;15.07;13.50;;;;;;;17.19;94.74;98357.41;4952279;28;103910;-67
2021/09/09 00:25:30;;;;;;;13.43;12.23;;;;;;;17.17;95.36;98349.56;4953344;28;103372;-65
2021/09/09 00:27:59;;;;;;;14.32;12.93;;;;;;;17.25;95.21;98349.59;4951118;28;102927;-66
2021/09/09 00:30:27;;;;;;;10.68;9.65;;;;;;;17.41;93.06;98356.81;4939439;28;102665;-66
2021/09/09 00:32:56;;;;;;;9.63;8.73;;;;;;;17.52;90.52;98347.66;4958450;28;102680;-60
2021/09/09 00:35:24;;;;;;;8.88;8.07;;;;;;;17.52;91.20;98347.66;4957878;28;104457;-60
2021/09/09 00:37:55;;;;;;;9.23;8.32;;;;;;;17.56;89.74;98349.06;4953139;28;103427;-60
2021/09/09 00:40:23;;;;;;;7.93;7.22;;;;;;;17.57;88.65;98356.06;4952250;28;102653;-60
2021/09/09 00:42:51;;;;;;;11.32;10.10;;;;;;;17.42;90.09;98342.47;4951485;28;104273;-61
2021/09/09 00:45:19;;;;;;;15.63;14.05;;;;;;;17.00;95.41;98341.63;4948904;28;104383;-60
2021/09/09 00:47:47;;;;;;;15.27;13.88;;;;;;;17.02;94.73;98343.16;4969986;28;103412;-61
2021/09/09 00:50:15;;;;;;;14.75;12.48;;;;;;;16.92;94.32;98344.28;4977220;28;103152;-60
2021/09/09 00:52:47;;;;;;;17.35;14.70;;;;;;;16.86;95.02;98339.56;4965686;28;102651;-60
2021/09/09 00:55:17;;;;;;;12.80;11.27;;;;;;;16.98;95.19;98346.31;4968306;28;103297;-60
2021/09/09 00:57:45;;;;;;;13.40;12.10;;;;;;;17.02;95.28;98342.31;4970988;28;103369;-66
2021/09/09 01:00:15;;;;;;;12.48;10.52;;;;;;;17.04;96.04;98343.00;4974382;28;102926;-61
2021/09/09 01:02:43;;;;;;;14.88;13.40;;;;;;;17.03;95.82;98341.31;4967863;28;104072;-67
2021/09/09 01:05:12;;;;;;;11.50;10.40;;;;;;;17.13;95.36;98342.03;4976122;28;103272;-66
2021/09/09 01:07:41;;;;;;;15.05;13.40;;;;;;;17.15;94.71;98345.38;4990662;28;103377;-66
2021/09/09 01:10:09;;;;;;;13.55;12.25;;;;;;;17.12;95.00;98346.50;4988364;28;102751;-61
2021/09/09 01:12:39;;;;;;;15.43;13.93;;;;;;;17.08;95.23;98341.66;4986903;28;102845;-66
2021/09/09 01:15:09;;;;;;;15.32;13.82;;;;;;;16.97;96.70;98336.63;4980928;28;103311;-66
2021/09/09 01:17:37;;;;;;;13.63;12.35;;;;;;;16.81;97.86;98342.72;4966985;28;103247;-66
2021/09/09 01:20:06;;;;;;;19.30;17.30;;;;;;;16.78;97.88;98338.53;4989727;28;102629;-66
2021/09/09 01:22:35;;;;;;;16.38;14.55;;;;;;;16.85;97.45;98338.72;4991680;28;103374;-66
2021/09/09 01:25:05;;;;;;;17.92;15.75;;;;;;;16.86;97.50;98336.91;4986373;28;103380;-66
2021/09/09 01:27:33;;;;;;;15.85;14.32;;;;;;;16.92;96.88;98334.44;4983842;28;103229;-61
2021/09/09 01:30:02;;;;;;;19.05;14.57;;;;;;;16.97;96.51;98331.28;4990209;28;102568;-66
2021/09/09 01:32:31;;;;;;;18.35;15.98;;;;;;;17.01;95.94;98329.97;4991163;28;103560;-66
2021/09/09 01:34:59;;;;;;;17.55;15.82;;;;;;;17.01;96.26;98329.97;4989221;28;103317;-66
2021/09/09 01:37:27;;;;;;;17.92;16.17;;;;;;;16.97;97.00;98325.94;4994049;28;103241;-60
2021/09/09 01:39:56;;;;;;;15.77;14.25;;;;;;;16.95;97.46;98334.13;4989300;28;102757;-60
2021/09/09 01:42:25;;;;;;;20.13;17.35;;;;;;;16.78;98.74;98327.88;4967971;28;103975;-66
2021/09/09 01:44:53;;;;;;;21.33;18.23;;;;;;;16.74;98.78;98331.84;4986382;28;104060;-66
2021/09/09 01:47:21;;;;;;;19.80;17.77;;;;;;;16.69;99.30;98322.63;4970660;28;105291;-66
2021/09/09 01:49:49;;;;;;;18.90;17.02;;;;;;;16.73;99.08;98324.81;4992503;28;102594;-66
2021/09/09 01:52:17;;;;;;;19.35;17.55;;;;;;;16.80;98.73;98319.69;4983152;28;102939;-66
2021/09/09 01:54:45;;;;;;;19.83;17.73;;;;;;;16.75;98.66;98322.00;4990364;28;103847;-66
2021/09/09 01:57:13;;;;;;;19.08;17.08;;;;;;;16.76;98.61;98323.66;4988323;28;103346;-66
2021/09/09 01:59:43;;;;;;;17.95;16.23;;;;;;;16.72;98.75;98322.31;4992203;28;102760;-66
2021/09/09 02:02:10;;;;;;;13.98;12.57;;;;;;;16.88;97.90;98316.22;4990225;28;102672;-66
2021/09/09 02:04:39;;;;;;;18.98;16.98;;;;;;;16.80;97.65;98325.88;4987931;28;103271;-66
2021/09/09 02:07:07;;;;;;;19.17;17.17;;;;;;;16.78;98.13;98317.19;4991437;28;103283;-59
2021/09/09 02:09:35;;;;;;;14.68;13.05;;;;;;;16.83;98.04;98315.88;4994451;28;102932;-66
2021/09/09 02:12:04;;;;;;;17.50;15.90;;;;;;;16.91;96.94;98318.56;4977113;28;102907;-66
2021/09/09 02:14:32;;;;;;;16.92;15.32;;;;;;;16.83;97.93;98319.38;4990214;28;104433;-67
2021/09/09 02:17:01;;;;;;;17.65;15.93;;;;;;;16.89;96.88;98323.25;4986511;28;103233;-67
2021/09/09 02:19:29;;;;;;;18.73;16.95;;;;;;;16.86;97.12;98312.88;4985970;28;102927;-61
2021/09/09 02:21:58;;;;;;;21.25;17.17;;;;;;;16.81;97.28;98308.84;4986549;28;104463;-67
2021/09/09 02:24:26;;;;;;;18.70;16.70;;;;;;;16.78;97.89;98313.69;4991368;28;103846;-66
2021/09/09 02:26:53;;;;;;;19.42;17.33;;;;;;;16.80;97.71;98315.19;4996083;28;103222;-66
2021/09/09 02:29:22;;;;;;;14.77;13.40;;;;;;;16.94;96.80;98318.25;4975622;28;102755;-61
2021/09/09 02:31:50;;;;;;;14.57;13.18;;;;;;;17.02;95.66;98312.94;4997028;28;102727;-60
2021/09/09 02:34:19;;;;;;;18.13;16.30;;;;;;;17.02;95.23;98312.94;4987986;28;104292;-66
2021/09/09 02:36:47;;;;;;;18.70;16.90;;;;;;;16.95;95.63;98322.59;4967428;28;103370;-59
2021/09/09 02:39:15;;;;;;;12.93;11.73;;;;;;;16.99;95.91;98315.94;4992158;28;102752;-59
2021/09/09 02:41:43;;;;;;;15.45;13.98;;;;;;;17.02;95.36;98320.97;4992410;28;104111;-59
2021/09/09 02:44:11;;;;;;;17.75;16.05;;;;;;;17.06;94.74;98319.66;4972838;28;103487;-60
2021/09/09 02:46:39;;;;;;;18.42;16.63;;;;;;;17.03;94.78;98315.47;4992096;28;103195;-66
2021/09/09 02:49:07;;;;;;;18.23;16.42;;;;;;;17.01;94.77;98311.28;4990780;28;102723;-61
2021/09/09 02:51:37;;;;;;;16.58;14.52;;;;;;;17.01;95.04;98305.97;4995726;28;103818;-61
2021/09/09 02:54:05;;;;;;;15.68;14.10;;;;;;;17.06;94.54;98303.63;4988387;28;103292;-60
2021/09/09 02:56:33;;;;;;;15.90;14.23;;;;;;;17.05;94.91;98308.13;4997131;28;103050;-61
2021/09/09 02:59:02;;;;;;;12.52;10.88;;;;;;;17.08;94.79;98304.31;4989232;28;102675;-60
2021/09/09 03:01:30;;;;;;;12.57;11.48;;;;;;;17.12;93.80;98303.81;4987179;28;102658;-61
2021/09/09 03:03:58;;;;;;;11.30;10.25;;;;;;;17.20;93.20;98303.03;4975532;28;104213;-61
2021/09/09 03:06:26;;;;;;;15.48;13.98;;;;;;;17.05;93.37;98300.13;4982793;28;103223;-60
2021/09/09 03:08:56;;;;;;;15.85;14.43;;;;;;;17.04;93.79;98294.97;4988737;28;102653;-60
2021/09/09 03:11:24;;;;;;;13.82;12.43;;;;;;;16.93;95.83;98298.72;4972129;28;103025;-60
2021/09/09 03:13:52;;;;;;;13.48;12.23;;;;;;;16.87;96.32;98299.38;4992733;28;103254;-66
2021/09/09 03:16:20;;;;;;;11.10;10.10;;;;;;;16.97;95.22;98288.59;4991435;28;103269;-66
2021/09/09 03:18:48;;;;;;;9.82;8.82;;;;;;;17.05;94.27;98296.63;4988843;28;102679;-66
2021/09/09 03:21:16;;;;;;;13.18;11.90;;;;;;;17.09;94.36;98287.31;4993026;28;102594;-66
2021/09/09 03:23:44;;;;;;;11.23;10.10;;;;;;;17.16;94.01;98291.81;4986714;28;103087;-67
2021/09/09 03:26:14;;;;;;;11.68;10.43;;;;;;;17.18;93.48;98286.31;4987600;28;103209;-66
2021/09/09 03:28:42;;;;;;;13.38;11.15;;;;;;;17.03;95.14;98287.94;4989519;28;102602;-66
2021/09/09 03:31:10;;;;;;;12.23;10.95;;;;;;;17.03;94.99;98285.28;4990534;28;102673;-65
2021/09/09 03:33:37;;;;;;;11.75;10.65;;;;;;;17.13;93.93;98294.81;4989302;28;103938;-65
2021/09/09 03:36:06;;;;;;;15.05;12.52;;;;;;;17.18;93.33;98287.16;4980766;28;103224;-66
2021/09/09 03:38:34;;;;;;;11.88;10.77;;;;;;;17.21;93.28;98286.00;4992329;28;103882;-60
2021/09/09 03:41:02;;;;;;;12.48;11.18;;;;;;;17.13;94.19;98277.97;4989656;28;103305;-60
2021/09/09 03:43:31;;;;;;;12.23;11.02;;;;;;;17.18;93.95;98276.47;4988009;28;103673;-59
2021/09/09 03:45:59;;;;;;;12.27;11.07;;;;;;;17.20;93.58;98279.00;4985529;28;103229;-66
2021/09/09 03:48:27;;;;;;;10.88;9.88;;;;;;;17.14;94.02;98275.16;4993651;28;102818;-67
2021/09/09 03:50:55;;;;;;;10.05;9.15;;;;;;;17.20;93.26;98268.31;4989428;28;104106;-66
2021/09/09 03:53:23;;;;;;;11.57;9.93;;;;;;;17.20;92.71;98271.00;4987038;28;102662;-59
2021/09/09 03:55:51;;;;;;;12.20;10.52;;;;;;;17.18;93.02;98271.13;4990526;28;103710;-66
2021/09/09 03:58:20;;;;;;;10.98;9.95;;;;;;;17.18;93.28;98280.97;4972676;28;102797;-74
2021/09/09 04:00:49;;;;;;;9.77;8.93;;;;;;;17.19;92.79;98280.00;4990294;28;102714;-65
2021/09/09 04:03:18;;;;;;;8.90;8.02;;;;;;;17.19;92.84;98280.00;4983124;28;103390;-65
2021/09/09 04:05:46;;;;;;;12.48;11.23;;;;;;;17.16;93.57;98277.66;4971037;28;104038;-65
2021/09/09 04:08:14;;;;;;;10.32;9.07;;;;;;;17.24;92.85;98280.34;4989249;28;103130;-60
2021/09/09 04:10:42;;;;;;;14.65;13.15;;;;;;;17.17;93.30;98284.66;4992631;28;103218;-65
2021/09/09 04:13:10;;;;;;;11.48;10.48;;;;;;;17.25;92.72;98284.69;4986305;28;103255;-61
2021/09/09 04:15:39;;;;;;;10.35;9.35;;;;;;;17.28;92.95;98289.69;4987904;28;103245;-60
2021/09/09 04:18:08;;;;;;;12.73;11.50;;;;;;;17.26;93.00;98286.38;4983744;28;102628;-60
2021/09/09 04:20:36;;;;;;;15.32;13.80;;;;;;;17.19;93.78;98283.50;4972820;28;102821;-65
2021/09/09 04:23:04;;;;;;;12.55;11.35;;;;;;;17.24;93.65;98288.34;4989896;28;103270;-65
2021/09/09 04:25:32;;;;;;;10.57;9.68;;;;;;;17.32;92.98;98283.88;4986513;28;103344;-65
2021/09/09 04:28:00;;;;;;;9.73;8.80;;;;;;;17.33;93.22;98282.03;4985482;28;103049;-60
2021/09/09 04:30:28;;;;;;;9.85;9.05;;;;;;;17.37;92.88;98280.72;4986386;28;104088;-65
2021/09/09 04:32:56;;;;;;;9.15;8.27;;;;;;;17.39;92.27;98278.72;4988836;28;103902;-65
2021/09/09 04:35:26;;;;;;;13.43;12.05;;;;;;;17.26;93.67;98283.69;4993266;28;103207;-65
2021/09/09 04:37:54;;;;;;;10.98;9.57;;;;;;;17.32;93.07;98283.03;4990900;28;102589;-65
2021/09/09 04:40:22;;;;;;;12.48;11.38;;;;;;;17.32;92.54;98275.00;4987585;28;102628;-65
2021/09/09 04:42:50;;;;;;;14.23;12.13;;;;;;;17.25;93.07;98279.34;4990519;28;103277;-65
2021/09/09 04:45:17;;;;;;;14.23;11.75;;;;;;;17.26;92.79;98289.84;4989140;28;103187;-60
2021/09/09 04:47:45;;;;;;;12.63;11.48;;;;;;;17.29;92.73;98294.06;4986030;28;102805;-60
2021/09/09 04:50:13;;;;;;;12.43;11.20;;;;;;;17.33;92.37;98282.03;4983614;28;102913;-60
2021/09/09 04:52:43;;;;;;;8.98;8.25;;;;;;;17.36;92.11;98289.72;4989570;28;103273;-65
2021/09/09 04:55:11;;;;;;;10.45;9.32;;;;;;;17.38;91.77;98283.22;4982718;28;103383;-66
2021/09/09 04:57:39;;;;;;;10.98;9.98;;;;;;;17.25;92.64;98287.34;4985435;28;102724;-66
2021/09/09 05:00:08;;;;;;;12.15;10.30;;;;;;;17.27;92.20;98288.03;4984940;28;105572;-66
2021/09/09 05:02:37;;;;;;;13.05;11.02;;;;;;;17.28;91.93;98287.03;4986001;28;104026;-66
2021/09/09 05:05:07;;;;;;;16.50;11.80;;;;;;;17.26;91.80;98294.38;4981493;28;103282;-66
2021/09/09 05:07:35;;;;;;;10.00;9.00;;;;;;;17.35;91.33;98288.88;4978700;28;102673;-66
2021/09/09 05:10:06;;;;;;;13.75;10.68;;;;;;;17.33;91.36;98295.38;4989990;28;103966;-66
2021/09/09 05:12:35;;;;;;;9.63;8.80;;;;;;;17.33;91.57;98298.06;4981213;28;103259;-66
2021/09/09 05:15:03;;;;;;;11.55;10.50;;;;;;;17.29;91.52;98302.06;4988249;28;103298;-66
2021/09/09 05:17:32;;;;;;;11.98;10.80;;;;;;;17.40;90.93;98296.41;4989069;28;102624;-66
2021/09/09 05:20:00;;;;;;;11.32;10.23;;;;;;;17.45;90.34;98304.78;4990091;28;102729;-60
2021/09/09 05:22:28;;;;;;;10.70;9.60;;;;;;;17.37;91.35;98302.09;4971640;28;103275;-60
2021/09/09 05:24:56;;;;;;;10.35;9.40;;;;;;;17.48;90.41;98296.44;4988943;28;103722;-60
2021/09/09 05:27:25;;;;;;;10.85;9.70;;;;;;;17.52;90.44;98302.25;4988334;28;102714;-60
2021/09/09 05:29:53;;;;;;;11.82;10.75;;;;;;;17.49;90.15;98300.75;4973039;28;102712;-60
2021/09/09 05:32:21;;;;;;;11.77;10.48;;;;;;;17.57;90.08;98308.81;4984911;28;103261;-61
2021/09/09 05:34:49;;;;;;;11.80;10.60;;;;;;;17.53;90.05;98310.13;4973557;28;103125;-60
2021/09/09 05:37:17;;;;;;;12.32;10.82;;;;;;;17.54;90.18;98306.50;4984501;28;102800;-60
2021/09/09 05:39:45;;;;;;;11.18;9.25;;;;;;;17.70;89.48;98314.53;4986673;28;103954;-61
2021/09/09 05:42:13;;;;;;;9.68;8.88;;;;;;;17.69;89.65;98315.53;4965661;28;103272;-59
2021/09/09 05:44:43;;;;;;;9.73;8.77;;;;;;;17.84;88.53;98315.72;4974012;28;104629;-60
2021/09/09 05:47:11;;;;;;;9.88;8.98;;;;;;;17.88;88.74;98317.88;4987481;28;103099;-60
2021/09/09 05:49:39;;;;;;;10.98;9.98;;;;;;;17.85;88.69;98312.88;4987903;28;104020;-60
2021/09/09 05:52:07;;;;;;;12.60;11.23;;;;;;;17.97;87.80;98316.03;4988286;28;103236;-60
2021/09/09 05:54:36;;;;;;;12.05;10.82;;;;;;;17.99;88.39;98323.91;4987179;28;103249;-60
2021/09/09 05:57:05;;;;;;;10.68;9.55;;;;;;;18.16;87.38;98321.06;4985549;28;102651;-58
2021/09/09 05:59:33;;;;;;;15.55;12.75;;;;;;;18.19;86.96;98319.91;4989244;28;102691;-60
2021/09/09 06:02:02;;;;;;;10.65;9.60;;;;;;;18.23;87.06;98324.75;4990855;28;103282;-61
2021/09/09 06:04:34;;;;;;;9.73;8.80;;;;;;;18.37;86.54;98325.91;4988312;28;103335;-59
2021/09/09 06:07:02;;;;;;;8.90;8.00;;;;;;;18.38;86.44;98327.59;4989184;28;102711;-59
2021/09/09 06:09:30;;;;;;;9.68;8.68;;;;;;;18.35;86.61;98319.91;4986788;28;102794;-59
2021/09/09 06:11:58;;;;;;;8.82;7.95;;;;;;;18.55;86.31;98331.09;4992317;28;103286;-59
2021/09/09 06:14:27;;;;;;;12.38;9.38;;;;;;;18.62;85.84;98332.91;4986307;28;103198;-61
2021/09/09 06:16:55;;;;;;;9.60;8.60;;;;;;;18.80;84.91;98333.56;4987742;28;102693;-59
2021/09/09 06:19:24;;;;;;;11.13;9.70;;;;;;;18.89;84.16;98329.84;4990370;28;102752;-59
2021/09/09 06:21:53;;;;;;;10.45;9.35;;;;;;;18.99;84.45;98332.31;4991059;28;103260;-59
2021/09/09 06:24:21;;;;;;;10.30;8.70;;;;;;;19.21;83.50;98328.91;4985642;28;103226;-59
2021/09/09 06:26:49;;;;;;;13.68;10.57;;;;;;;19.30;82.36;98332.38;4969778;28;102775;-59
2021/09/09 06:29:17;;;;;;;13.35;10.82;;;;;;;19.48;82.24;98335.69;4986971;28;102696;-59
2021/09/09 06:31:45;;;;;;;10.07;9.02;;;;;;;19.51;81.96;98332.63;4995126;28;104395;-59
2021/09/09 06:34:12;;;;;;;10.15;9.15;;;;;;;19.52;81.57;98331.63;4992137;28;103202;-59
2021/09/09 06:36:42;;;;;;;10.75;9.70;;;;;;;19.50;82.15;98331.81;4991856;28;102651;-59
2021/09/09 06:39:10;;;;;;;11.25;10.20;;;;;;;19.46;81.88;98327.81;4976690;28;104022;-59
2021/09/09 06:41:40;;;;;;;11.70;9.80;;;;;;;19.74;80.88;98336.19;4993084;28;104581;-59
2021/09/09 06:44:08;;;;;;;13.63;10.77;;;;;;;19.77;80.61;98332.31;4988972;28;103272;-59
2021/09/09 06:46:36;;;;;;;11.30;10.20;;;;;;;19.78;81.21;98334.81;4987538;28;102746;-62
2021/09/09 06:49:04;;;;;;;13.38;10.63;;;;;;;19.96;80.87;98335.34;4989493;28;102859;-59
2021/09/09 06:51:32;;;;;;;12.27;10.32;;;;;;;19.96;80.20;98334.50;4989401;28;103293;-59
2021/09/09 06:54:01;;;;;;;13.82;10.15;;;;;;;19.95;81.04;98332.88;4991828;28;102976;-59
2021/09/09 06:56:29;;;;;;;12.27;8.90;;;;;;;19.85;80.73;98335.75;4996427;28;103128;-60
2021/09/09 06:58:58;;;;;;;10.15;9.25;;;;;;;19.84;81.06;98336.81;4992843;28;103643;-68
2021/09/09 07:01:26;;;;;;;10.75;9.75;;;;;;;19.93;80.92;98334.91;4987668;28;103287;-69
2021/09/09 07:03:54;;;;;;;11.05;9.85;;;;;;;20.01;80.67;98330.31;4987980;28;103251;-69
2021/09/09 07:06:22;;;;;;;10.43;9.20;;;;;;;20.53;79.37;98322.34;4993718;28;102616;-70
2021/09/09 07:08:50;;;;;;;11.80;10.52;;;;;;;20.44;79.09;98323.44;4987903;28;102712;-70
2021/09/09 07:11:20;;;;;;;13.65;11.10;;;;;;;20.51;78.77;98331.59;4989799;28;103426;-70
2021/09/09 07:13:48;;;;;;;13.63;10.98;;;;;;;20.64;78.58;98327.25;4987463;28;104096;-70
2021/09/09 07:16:16;;;;;;;10.77;9.70;;;;;;;20.61;78.62;98329.47;4985779;28;102953;-69
2021/09/09 07:18:44;;;;;;;11.90;10.32;;;;;;;20.72;78.30;98337.06;4987738;28;104028;-69
2021/09/09 07:21:12;;;;;;;12.00;10.30;;;;;;;20.90;77.36;98334.88;4974419;28;104304;-70
2021/09/09 07:23:40;;;;;;;12.13;10.93;;;;;;;21.23;76.13;98332.66;4983960;28;103248;-70
2021/09/09 07:26:08;;;;;;;15.68;10.75;;;;;;;21.32;75.25;98340.44;4986006;28;102764;-70
2021/09/09 07:28:38;;;;;;;11.13;9.00;;;;;;;21.77;74.62;98327.75;4970691;28;102737;-70
2021/09/09 07:31:06;;;;;;;12.30;10.38;;;;;;;22.10;72.43;98341.56;4995229;28;103293;-59
2021/09/09 07:33:34;;;;;;;12.15;8.88;;;;;;;22.18;72.89;98331.50;4985556;28;103335;-60
2021/09/09 07:36:02;;;;;;;10.77;8.80;;;;;;;22.40;71.63;98330.47;4977820;28;102804;-60
2021/09/09 07:38:30;;;;;;;12.93;9.35;;;;;;;22.53;70.95;98329.75;4992536;28;102936;-59
2021/09/09 07:40:58;;;;;;;12.38;9.00;;;;;;;23.00;71.29;98337.13;4987258;28;103668;-60
2021/09/09 07:43:26;;;;;;;11.88;9.30;;;;;;;23.03;70.32;98336.75;4987784;28;103040;-59
2021/09/09 07:45:56;;;;;;;11.77;9.25;;;;;;;23.11;68.00;98339.28;4983088;28;102909;-59
2021/09/09 07:48:24;;;;;;;9.23;8.32;;;;;;;23.26;68.93;98341.84;4987558;28;103822;-59
2021/09/09 07:50:52;;;;;;;9.38;7.50;;;;;;;23.77;67.19;98345.00;4990370;28;103250;-62
2021/09/09 07:53:20;;;;;;;8.73;7.93;;;;;;;24.27;66.11;98339.13;4990300;28;103229;-59
2021/09/09 07:55:48;;;;;;;9.90;8.95;;;;;;;24.25;66.35;98343.91;4987687;28;102727;-62
2021/09/09 07:58:16;;;;;;;11.18;10.02;;;;;;;23.19;69.29;98347.19;4993228;28;103933;-59
2021/09/09 08:00:45;;;;;;;10.32;9.30;;;;;;;23.12;68.53;98346.34;4994576;28;104095;-60
2021/09/09 08:03:14;;;;;;;8.63;7.93;;;;;;;24.01;68.40;98347.13;4990886;28;103299;-61
2021/09/09 08:05:42;;;;;;;11.25;8.02;;;;;;;24.10;67.70;98348.63;4993174;28;102741;-60
2021/09/09 08:08:10;;;;;;;12.40;9.00;;;;;;;24.51;65.13;98343.91;4995779;28;103841;-61
2021/09/09 08:10:38;;;;;;;10.68;8.10;;;;;;;24.37;66.00;98355.72;4986834;28;103891;-61
2021/09/09 08:13:06;;;;;;;10.93;9.90;;;;;;;24.71;64.55;98347.44;4987922;28;103185;-61
2021/09/09 08:15:37;;;;;;;9.20;8.40;;;;;;;24.75;63.50;98351.38;4976593;28;103031;-60
2021/09/09 08:18:05;;;;;;;9.63;8.73;;;;;;;24.58;65.70;98360.94;4970930;28;103596;-61
2021/09/09 08:20:34;;;;;;;10.55;9.50;;;;;;;23.96;65.42;98360.41;4980466;28;104120;-60
2021/09/09 08:23:03;;;;;;;11.45;10.15;;;;;;;24.26;64.36;98367.13;4980408;28;103047;-60
2021/09/09 08:25:31;;;;;;;11.85;9.13;;;;;;;23.94;65.70;98363.31;4984534;28;102766;-61
2021/09/09 08:27:59;;;;;;;10.98;8.20;;;;;;;24.04;66.35;98363.75;4968379;28;103257;-61
2021/09/09 08:30:28;;;;;;;8.38;7.28;;;;;;;25.15;65.51;98364.88;4977604;28;104269;-61
2021/09/09 08:32:56;;;;;;;9.32;8.02;;;;;;;26.11;61.67;98354.91;4980948;28;103291;-61
2021/09/09 08:35:24;;;;;;;11.80;7.93;;;;;;;26.99;58.95;98362.81;4984100;28;103033;-62
2021/09/09 08:37:54;;;;;;;7.25;6.55;;;;;;;26.95;54.51;98366.19;4985207;28;102834;-62
2021/09/09 08:40:23;;;;;;;8.05;6.50;;;;;;;26.88;55.72;98368.16;4968971;28;103933;-62
2021/09/09 08:42:52;;;;;;;7.50;5.93;;;;;;;26.16;54.40;98366.78;4983962;28;103221;-62
2021/09/09 08:45:21;;;;;;;8.55;6.25;;;;;;;25.72;55.54;98369.47;4980714;28;103315;-66
2021/09/09 08:47:51;;;;;;;7.20;5.20;;;;;;;26.50;55.28;98374.47;4974897;28;102819;-64
2021/09/09 08:50:19;;;;;;;7.95;6.65;;;;;;;27.10;51.84;98371.25;4979179;28;103272;-66
2021/09/09 08:52:49;;;;;;;6.63;6.03;;;;;;;27.91;51.12;98378.06;4980429;28;103358;-65
2021/09/09 08:55:20;;;;;;;6.90;6.30;;;;;;;27.78;50.17;98378.25;4978401;28;103251;-66
2021/09/09 08:57:49;;;;;;;6.40;5.80;;;;;;;28.41;49.74;98377.84;4970920;28;103905;-66
2021/09/09 09:00:17;;;;;;;6.75;6.13;;;;;;;28.49;48.38;98372.06;4980075;28;103527;-67
2021/09/09 09:02:53;;;;;;;7.35;6.65;;;;;;;29.12;48.20;98374.97;4979316;28;104285;-67
2021/09/09 09:06:17;;;;;;;7.55;5.82;;;;;;;29.33;47.11;98375.22;4982718;28;102805;-67
2021/09/09 09:08:51;;;;;;;7.00;6.20;;;;;;;29.19;46.65;98375.72;4984930;28;103018;-65
2021/09/09 09:11:23;;;;;;;7.30;6.53;;;;;;;28.83;46.74;98371.31;4989002;28;104152;-64
2021/09/09 09:13:52;;;;;;;9.40;6.47;;;;;;;29.84;47.14;98373.63;4970238;28;103954;-64
2021/09/09 09:16:23;;;;;;;10.20;6.27;;;;;;;29.87;47.02;98379.41;4989746;28;102720;-64
2021/09/09 09:18:51;;;;;;;7.05;6.35;;;;;;;29.53;46.93;98376.75;4988822;28;102817;-64
2021/09/09 09:21:21;;;;;;;10.32;6.30;;;;;;;30.06;47.36;98371.06;4989703;28;103801;-64
2021/09/09 09:23:51;;;;;;;8.70;6.10;;;;;;;30.63;44.84;98371.84;4966784;28;103248;-64
2021/09/09 09:26:28;;;;;;;7.53;5.25;;;;;;;30.52;45.45;98367.28;4988242;28;102642;-67
2021/09/09 09:28:57;;;;;;;9.00;5.53;;;;;;;30.14;46.54;98373.41;4993245;28;103349;-66
2021/09/09 09:31:28;;;;;;;13.27;5.40;;;;;;;30.35;47.00;98376.25;4985943;28;103199;-67
2021/09/09 09:33:58;;;;;;;13.15;5.65;;;;;;;30.50;47.18;98375.72;4972678;28;103536;-67
2021/09/09 09:36:28;;;;;;;13.07;5.90;;;;;;;30.41;47.17;98371.75;4992699;28;102735;-67
2021/09/09 09:39:10;;;;;;;10.35;6.47;;;;;;;30.58;45.29;98360.84;4989672;28;102790;-66
2021/09/09 09:41:41;;;;;;;11.27;6.60;;;;;;;30.90;44.37;98365.50;4986943;28;104213;-66
2021/09/09 09:44:18;;;;;;;10.52;6.28;;;;;;;31.14;44.85;98357.97;4971998;28;103284;-66
2021/09/09 09:46:46;;;;;;;9.90;5.80;;;;;;;31.44;43.92;98355.66;4981938;28;103117;-67
2021/09/09 09:49:28;;;;;;;10.02;6.20;;;;;;;31.62;43.64;98353.75;4984254;28;104026;-66
2021/09/09 09:51:59;;;;;;;7.27;5.60;;;;;;;31.21;43.34;98366.00;4988830;28;103388;-67
2021/09/09 09:54:28;;;;;;;10.47;6.13;;;;;;;31.21;43.73;98357.81;4986244;28;103229;-69
2021/09/09 09:56:58;;;;;;;6.80;6.20;;;;;;;30.92;43.70;98362.53;4991082;28;102836;-70
2021/09/09 09:59:27;;;;;;;6.47;5.88;;;;;;;30.49;43.85;98359.59;4991009;28;102835;-64
2021/09/09 10:01:55;;;;;;;6.28;5.68;;;;;;;31.07;44.37;98361.97;4967813;28;103008;-64
2021/09/09 10:04:24;;;;;;;6.38;5.80;;;;;;;31.05;43.41;98348.56;4988902;28;103289;-70
2021/09/09 10:06:53;;;;;;;6.40;5.70;;;;;;;31.07;44.27;98349.16;4989914;28;102918;-63
2021/09/09 10:09:21;;;;;;;6.90;5.80;;;;;;;31.19;43.49;98355.31;4984968;28;102804;-64
2021/09/09 10:11:50;;;;;;;6.80;6.03;;;;;;;30.46;44.02;98354.69;4970570;28;104495;-70
2021/09/09 10:14:23;;;;;;;7.93;6.07;;;;;;;30.56;44.61;98355.66;4986192;28;103235;-71
2021/09/09 10:16:56;;;;;;;7.30;6.10;;;;;;;31.48;43.49;98361.47;4983530;28;102830;-70
2021/09/09 10:19:27;;;;;;;6.38;5.88;;;;;;;31.47;43.20;98363.38;4988985;28;102880;-71
2021/09/09 10:22:06;;;;;;;6.85;6.15;;;;;;;31.44;43.87;98352.13;4988422;28;103556;-71
2021/09/09 10:24:36;;;;;;;5.63;5.13;;;;;;;31.76;42.28;98361.31;4985459;28;103262;-70
2021/09/09 10:27:27;;;;;;;6.38;5.55;;;;;;;31.56;42.82;98358.31;4972227;28;102902;-64
2021/09/09 10:30:00;;;;;;;5.90;5.30;;;;;;;31.81;42.60;98353.16;4990140;28;102898;-64
2021/09/09 10:32:56;;;;;;;5.35;4.95;;;;;;;31.76;41.15;98346.81;4989290;28;103041;-64
2021/09/09 10:35:36;;;;;;;7.13;5.85;;;;;;;31.92;41.53;98344.00;4989215;28;103197;-64
2021/09/09 10:38:28;;;;;;;6.20;5.40;;;;;;;31.93;41.96;98350.31;4983228;28;102711;-63
2021/09/09 10:40:58;;;;;;;6.20;5.60;;;;;;;31.51;42.20;98348.16;4988597;28;102695;-63
2021/09/09 10:43:50;;;;;;;6.22;5.68;;;;;;;32.01;41.60;98347.13;4971555;28;103815;-64
2021/09/09 10:46:20;;;;;;;6.32;5.40;;;;;;;32.17;42.22;98339.94;4994241;28;103236;-64
2021/09/09 10:49:15;;;;;;;6.07;5.20;;;;;;;31.97;41.14;98346.00;4990408;28;102830;-64
2021/09/09 10:52:09;;;;;;;5.22;4.80;;;;;;;32.95;39.82;98336.56;4986150;28;102594;-64
2021/09/09 10:55:04;;;;;;;5.72;5.22;;;;;;;32.49;41.64;98338.88;4990304;28;103292;-71
2021/09/09 10:57:35;;;;;;;6.70;5.47;;;;;;;32.38;40.97;98331.69;4987284;28;103110;-64
2021/09/09 11:00:05;;;;;;;6.60;5.10;;;;;;;32.40;40.70;98326.78;4991528;28;102953;-70
2021/09/09 11:02:45;;;;;;;8.30;6.03;;;;;;;32.56;40.73;98334.03;4968614;28;103028;-70
2021/09/09 11:05:15;;;;;;;5.95;5.35;;;;;;;32.70;40.66;98335.25;4978791;28;103893;-71
2021/09/09 11:07:43;;;;;;;5.80;5.15;;;;;;;32.45;41.14;98328.75;4983889;28;103247;-72
2021/09/09 11:10:12;;;;;;;8.73;6.30;;;;;;;32.15;42.15;98329.25;4981413;28;102906;-70
2021/09/09 11:12:59;;;;;;;7.68;6.32;;;;;;;31.08;43.26;98319.94;4964570;28;103945;-72
2021/09/09 11:15:34;;;;;;;8.03;6.03;;;;;;;31.12;44.19;98326.56;4979313;28;103246;-69
2021/09/09 11:18:04;;;;;;;7.10;5.93;;;;;;;29.54;45.81;98323.97;4963202;28;103273;-70
2021/09/09 11:20:32;;;;;;;8.32;6.40;;;;;;;29.79;45.54;98321.75;4982489;28;103778;-71
2021/09/09 11:23:11;;;;;;;6.95;6.30;;;;;;;29.57;45.97;98312.59;4979849;28;103165;-72
2021/09/09 11:25:39;;;;;;;9.20;6.38;;;;;;;30.05;45.83;98321.22;4976121;28;103489;-71
2021/09/09 11:28:17;;;;;;;6.77;6.20;;;;;;;31.67;43.18;98313.69;4979291;28;103232;-71